createdAt,value
2018-03-08T00:01:26.562Z,4.90
2018-03-08T00:04:02.967Z,5.00
2018-03-08T00:06:38.244Z,5.00
2018-03-08T00:09:12.953Z,4.90
2018-03-08T00:11:47.765Z,4.90
2018-03-08T00:14:22.498Z,4.90
2018-03-08T00:16:56.377Z,4.90
2018-03-08T00:19:30.894Z,4.90
2018-03-08T00:22:04.740Z,4.90
2018-03-08T00:24:39.312Z,4.90
2018-03-08T00:27:13.221Z,5.00
2018-03-08T00:29:47.130Z,5.00
2018-03-08T00:32:20.848Z,5.00
2018-03-08T00:34:54.648Z,5.00
2018-03-08T00:37:28.442Z,5.00
2018-03-08T00:40:02.908Z,5.00
2018-03-08T00:42:37.112Z,5.00
2018-03-08T00:45:11.648Z,5.00
2018-03-08T00:47:46.141Z,5.00
2018-03-08T00:50:20.560Z,5.00
2018-03-08T00:52:54.242Z,5.00
2018-03-08T00:55:27.985Z,5.00
2018-03-08T00:58:03.996Z,5.10
2018-03-08T01:00:37.834Z,5.10
2018-03-08T01:03:11.627Z,5.10
2018-03-08T01:05:45.391Z,5.10
2018-03-08T01:08:19.201Z,5.20
2018-03-08T01:10:53.110Z,5.20
2018-03-08T01:13:26.927Z,5.20
2018-03-08T01:16:00.596Z,5.20
2018-03-08T01:18:34.375Z,5.30
2018-03-08T01:21:08.092Z,5.30
2018-03-08T01:23:45.217Z,5.30
2018-03-08T01:26:19.303Z,5.30
2018-03-08T01:28:52.886Z,5.30
2018-03-08T01:31:27.453Z,5.30
2018-03-08T01:34:02.135Z,5.40
2018-03-08T01:36:36.758Z,5.40
2018-03-08T01:39:11.288Z,5.40
2018-03-08T01:41:45.015Z,5.40
2018-03-08T01:44:20.288Z,5.40
2018-03-08T01:46:54.325Z,5.40
2018-03-08T01:49:28.827Z,5.40
2018-03-08T01:52:12.633Z,5.40
2018-03-08T01:54:46.520Z,5.50
2018-03-08T01:57:20.323Z,5.50
2018-03-08T01:59:54.173Z,5.50
2018-03-08T02:02:27.980Z,5.40
2018-03-08T02:05:01.766Z,5.40
2018-03-08T02:07:35.471Z,5.40
2018-03-08T02:10:10.117Z,5.40
2018-03-08T02:12:44.684Z,5.40
2018-03-08T02:15:19.268Z,5.40
2018-03-08T02:17:54.354Z,5.40
2018-03-08T02:20:27.908Z,5.40
2018-03-08T02:23:01.672Z,5.40
2018-03-08T02:25:35.402Z,5.40
2018-03-08T02:28:09.456Z,5.40
2018-03-08T02:30:43.249Z,5.40
2018-03-08T02:33:18.085Z,5.30
2018-03-08T02:35:52.848Z,5.30
2018-03-08T02:38:26.451Z,5.30
2018-03-08T02:41:01.039Z,5.30
2018-03-08T02:43:34.860Z,5.20
2018-03-08T02:46:08.526Z,5.20
2018-03-08T02:48:45.637Z,5.20
2018-03-08T02:51:19.479Z,5.20
2018-03-08T02:53:54.029Z,5.20
2018-03-08T02:56:29.114Z,5.20
2018-03-08T02:59:03.258Z,5.20
2018-03-08T03:01:40.292Z,5.20
2018-03-08T03:04:13.871Z,5.20
2018-03-08T03:06:47.678Z,5.20
2018-03-08T03:09:21.391Z,5.20
2018-03-08T03:11:55.176Z,5.20
2018-03-08T03:14:28.915Z,5.10
2018-03-08T03:17:02.670Z,5.20
2018-03-08T03:19:36.510Z,5.10
2018-03-08T03:22:10.210Z,5.10
2018-03-08T03:24:44.053Z,5.10
2018-03-08T03:27:18.640Z,5.10
2018-03-08T03:29:53.479Z,5.10
2018-03-08T03:32:27.178Z,5.10
2018-03-08T03:35:02.372Z,5.10
2018-03-08T03:37:37.680Z,5.00
2018-03-08T03:40:11.271Z,5.00
2018-03-08T03:42:45.276Z,5.00
2018-03-08T03:45:19.174Z,5.00
2018-03-08T03:47:53.324Z,4.90
2018-03-08T03:50:27.083Z,4.90
2018-03-08T03:53:00.932Z,4.90
2018-03-08T03:55:34.726Z,4.80
2018-03-08T03:58:09.265Z,4.70
2018-03-08T04:00:42.880Z,4.70
2018-03-08T04:03:17.352Z,4.70
2018-03-08T04:05:52.160Z,4.70
2018-03-08T04:08:25.926Z,4.60
2018-03-08T04:10:59.657Z,4.60
2018-03-08T04:13:33.343Z,4.60
2018-03-08T04:16:08.038Z,4.60
2018-03-08T04:18:42.203Z,4.60
2018-03-08T04:21:17.321Z,4.50
2018-03-08T04:23:52.114Z,4.40
2018-03-08T04:26:25.890Z,4.30
2018-03-08T04:29:02.731Z,4.10
2018-03-08T04:31:36.363Z,3.80
2018-03-08T04:34:10.006Z,3.40
2018-03-08T04:36:43.709Z,3.20
2018-03-08T04:39:17.491Z,3.10
2018-03-08T04:41:51.103Z,3.00
2018-03-08T04:44:24.921Z,2.90
2018-03-08T04:46:58.664Z,2.80
2018-03-08T04:49:32.448Z,2.80
2018-03-08T04:52:06.625Z,2.70
2018-03-08T04:54:40.525Z,2.70
2018-03-08T04:57:14.268Z,2.70
2018-03-08T04:59:47.881Z,2.70
2018-03-08T05:02:26.297Z,2.70
2018-03-08T05:05:00.142Z,2.60
2018-03-08T05:07:33.939Z,2.60
2018-03-08T05:10:07.714Z,2.70
2018-03-08T05:12:41.459Z,2.70
2018-03-08T05:15:16.036Z,2.80
2018-03-08T05:17:49.809Z,2.80
2018-03-08T05:20:23.716Z,2.90
2018-03-08T05:22:57.417Z,2.90
2018-03-08T05:25:32.001Z,3.10
2018-03-08T05:28:05.805Z,3.00
2018-03-08T05:30:39.519Z,3.10
2018-03-08T05:33:14.769Z,3.10
2018-03-08T05:35:48.332Z,3.20
2018-03-08T05:38:22.915Z,3.20
2018-03-08T05:40:56.488Z,3.30
2018-03-08T05:43:30.294Z,3.40
2018-03-08T05:46:04.065Z,3.50
2018-03-08T05:48:37.865Z,3.60
2018-03-08T05:51:11.540Z,3.60
2018-03-08T05:53:45.279Z,3.70
2018-03-08T05:56:19.105Z,3.70
2018-03-08T05:58:52.790Z,3.70
2018-03-08T06:01:26.597Z,3.70
2018-03-08T06:04:03.153Z,3.80
2018-03-08T06:06:38.896Z,3.90
2018-03-08T06:09:12.508Z,3.90
2018-03-08T06:11:46.356Z,3.90
2018-03-08T06:14:20.911Z,4.00
2018-03-08T06:16:54.651Z,3.90
2018-03-08T06:19:28.439Z,4.00
2018-03-08T06:22:03.064Z,4.00
2018-03-08T06:24:37.519Z,4.10
2018-03-08T06:27:11.391Z,4.10
2018-03-08T06:29:45.095Z,4.10
2018-03-08T06:32:19.790Z,4.20
2018-03-08T06:34:53.526Z,4.20
2018-03-08T06:37:29.690Z,4.20
2018-03-08T06:42:47.250Z,4.30
2018-03-08T06:45:25.461Z,4.30
2018-03-08T06:47:59.992Z,4.30
2018-03-08T06:50:36.974Z,4.40
2018-03-08T06:53:12.121Z,4.40
2018-03-08T06:55:45.806Z,4.40
2018-03-08T06:58:19.657Z,4.40
2018-03-08T07:00:53.346Z,4.40
2018-03-08T07:03:28.103Z,4.50
2018-03-08T07:06:02.781Z,4.50
2018-03-08T07:08:37.608Z,4.50
2018-03-08T07:11:14.388Z,4.50
2018-03-08T07:13:48.284Z,4.60
2018-03-08T07:16:22.705Z,4.60
2018-03-08T07:18:57.899Z,4.60
2018-03-08T07:21:32.366Z,4.70
2018-03-08T07:24:06.759Z,4.70
2018-03-08T07:26:40.457Z,4.70
2018-03-08T07:29:14.268Z,4.80
2018-03-08T07:31:48.009Z,4.80
2018-03-08T07:34:21.856Z,4.80
2018-03-08T07:36:55.723Z,4.90
2018-03-08T07:39:29.616Z,4.90
2018-03-08T07:42:03.386Z,4.90
2018-03-08T07:44:38.152Z,4.90
2018-03-08T07:47:12.744Z,5.00
2018-03-08T07:49:47.249Z,5.00
2018-03-08T07:52:20.907Z,5.10
2018-03-08T07:54:54.716Z,5.10
2018-03-08T07:57:28.476Z,5.10
2018-03-08T08:00:03.071Z,5.10
2018-03-08T08:02:37.009Z,5.10
2018-03-08T08:05:24.048Z,5.10
2018-03-08T08:08:09.505Z,5.10
2018-03-08T08:10:43.646Z,5.10
2018-03-08T08:13:18.558Z,5.10
2018-03-08T08:15:52.565Z,5.10
2018-03-08T08:18:26.881Z,5.20
2018-03-08T08:21:00.656Z,5.30
2018-03-08T08:23:35.133Z,5.40
2018-03-08T08:26:08.835Z,5.50
2018-03-08T08:28:42.970Z,5.60
2018-03-08T08:31:16.696Z,5.70
2018-03-08T08:33:51.450Z,5.90
2018-03-08T08:36:25.846Z,5.90
2018-03-08T08:39:00.312Z,5.90
2018-03-08T08:41:34.148Z,5.90
2018-03-08T08:44:08.693Z,5.90
2018-03-08T08:46:42.457Z,5.90
2018-03-08T08:49:16.172Z,6.00
2018-03-08T08:51:50.005Z,6.00
2018-03-08T08:54:23.771Z,5.90
2018-03-08T08:56:59.201Z,5.90
2018-03-08T08:59:33.031Z,6.10
2018-03-08T09:02:06.733Z,6.20
2018-03-08T09:04:42.540Z,6.20
2018-03-08T09:07:16.553Z,6.20
2018-03-08T09:09:51.479Z,6.00
2018-03-08T09:12:26.565Z,6.00
2018-03-08T09:15:00.248Z,6.00
2018-03-08T09:17:33.978Z,6.10
2018-03-08T09:20:07.825Z,6.00
2018-03-08T09:22:41.900Z,6.00
2018-03-08T09:25:15.654Z,6.10
2018-03-08T09:27:49.483Z,6.20
2018-03-08T09:30:23.287Z,6.30
2018-03-08T09:32:57.173Z,6.30
2018-03-08T09:35:31.691Z,6.40
2018-03-08T09:38:05.506Z,6.40
2018-03-08T09:40:39.343Z,6.40
2018-03-08T09:43:13.041Z,6.40
2018-03-08T09:45:46.926Z,6.50
2018-03-08T09:48:21.089Z,6.60
2018-03-08T09:50:55.653Z,6.70
2018-03-08T09:53:30.331Z,6.90
2018-03-08T09:56:05.204Z,7.00
2018-03-08T09:58:39.609Z,7.00
2018-03-08T10:01:13.487Z,7.20
2018-03-08T10:03:47.175Z,7.40
2018-03-08T10:06:21.052Z,7.40
2018-03-08T10:08:54.824Z,7.40
2018-03-08T10:11:28.602Z,7.40
2018-03-08T10:14:03.289Z,7.50
2018-03-08T10:16:38.135Z,7.50
2018-03-08T10:19:11.697Z,7.40
2018-03-08T10:21:45.421Z,7.40
2018-03-08T10:24:19.236Z,7.40
2018-03-08T10:26:52.981Z,7.50
2018-03-08T10:29:26.705Z,7.70
2018-03-08T10:32:00.363Z,7.70
2018-03-08T10:34:34.869Z,7.70
2018-03-08T10:37:08.582Z,7.70
2018-03-08T10:39:43.200Z,7.70
2018-03-08T10:42:17.900Z,7.70
2018-03-08T10:44:51.836Z,7.70
2018-03-08T10:47:26.754Z,7.80
2018-03-08T10:50:00.557Z,8.00
2018-03-08T10:52:34.424Z,7.90
2018-03-08T10:55:08.164Z,7.80
2018-03-08T10:57:43.357Z,8.10
2018-03-08T11:00:17.375Z,8.10
2018-03-08T11:02:52.799Z,8.40
2018-03-08T11:05:28.810Z,8.30
2018-03-08T11:08:03.272Z,8.40
2018-03-08T11:10:37.785Z,8.40
2018-03-08T11:13:12.554Z,8.40
2018-03-08T11:15:46.353Z,8.50
2018-03-08T11:18:20.168Z,8.50
2018-03-08T11:20:53.988Z,8.60
2018-03-08T11:23:28.309Z,8.70
2018-03-08T11:26:02.708Z,8.80
2018-03-08T11:28:38.234Z,9.00
2018-03-08T11:31:12.036Z,9.00
2018-03-08T11:33:47.684Z,9.30
2018-03-08T11:36:21.609Z,9.30
2018-03-08T11:38:56.951Z,9.70
2018-03-08T11:41:30.769Z,9.70
2018-03-08T11:44:04.358Z,9.60
2018-03-08T11:46:38.163Z,9.70
2018-03-08T11:49:11.761Z,9.70
2018-03-08T11:51:46.258Z,9.80
2018-03-08T11:54:20.748Z,9.80
2018-03-08T11:56:54.645Z,9.80
2018-03-08T11:59:28.328Z,9.80
2018-03-08T12:02:02.158Z,10.00
2018-03-08T12:04:36.018Z,9.90
2018-03-08T12:07:09.898Z,9.90
2018-03-08T12:09:43.784Z,9.90
2018-03-08T12:12:17.500Z,9.90
2018-03-08T12:14:51.171Z,9.90
2018-03-08T12:17:26.631Z,10.00
2018-03-08T12:20:01.338Z,10.20
2018-03-08T12:22:35.827Z,10.20
2018-03-08T12:25:09.498Z,10.50
2018-03-08T12:27:43.893Z,10.70
2018-03-08T12:30:21.208Z,10.70
2018-03-08T12:32:54.828Z,10.60
2018-03-08T12:35:28.530Z,10.50
2018-03-08T12:38:02.313Z,10.80
2018-03-08T12:40:36.883Z,11.00
2018-03-08T12:43:10.656Z,11.10
2018-03-08T12:45:44.585Z,11.10
2018-03-08T12:48:18.366Z,11.00
2018-03-08T12:50:52.967Z,10.70
2018-03-08T12:53:28.571Z,10.60
2018-03-08T12:56:03.252Z,10.60
2018-03-08T12:58:37.088Z,10.60
2018-03-08T13:01:11.835Z,10.50
2018-03-08T13:03:45.823Z,10.50
2018-03-08T13:06:21.839Z,10.50
2018-03-08T13:08:57.073Z,10.40
2018-03-08T13:11:31.641Z,10.40
2018-03-08T13:14:05.426Z,10.50
2018-03-08T13:16:40.090Z,10.40
2018-03-08T13:19:15.012Z,10.50
2018-03-08T13:21:48.919Z,10.50
2018-03-08T13:24:22.728Z,10.60
2018-03-08T13:26:57.435Z,10.70
2018-03-08T13:29:31.729Z,10.80
2018-03-08T13:32:05.471Z,11.00
2018-03-08T13:34:40.156Z,11.20
2018-03-08T13:37:14.767Z,11.20
2018-03-08T13:39:50.250Z,11.40
2018-03-08T13:42:24.049Z,11.40
2018-03-08T13:44:57.828Z,11.80
2018-03-08T13:47:33.249Z,12.30
2018-03-08T13:50:07.189Z,13.80
2018-03-08T13:52:42.360Z,15.40
2018-03-08T13:55:16.157Z,15.40
2018-03-08T13:57:50.698Z,15.90
2018-03-08T14:00:25.456Z,15.80
2018-03-08T14:02:59.323Z,15.90
2018-03-08T14:05:33.885Z,15.10
2018-03-08T14:08:08.631Z,14.50
2018-03-08T14:10:43.056Z,14.40
2018-03-08T14:13:17.809Z,14.00
2018-03-08T14:15:51.456Z,13.10
2018-03-08T14:18:25.269Z,12.50
2018-03-08T14:20:59.791Z,11.90
2018-03-08T14:23:34.540Z,11.80
2018-03-08T14:26:08.246Z,11.40
2018-03-08T14:28:42.029Z,11.30
2018-03-08T14:31:15.968Z,11.40
2018-03-08T14:33:49.808Z,11.50
2018-03-08T14:36:24.947Z,11.40
2018-03-08T14:38:58.652Z,11.50
2018-03-08T14:41:32.399Z,11.60
2018-03-08T14:44:06.547Z,11.60
2018-03-08T14:46:40.178Z,11.30
2018-03-08T14:49:14.015Z,11.20
2018-03-08T14:51:47.878Z,11.20
2018-03-08T14:54:21.705Z,11.00
2018-03-08T14:56:55.532Z,10.80
2018-03-08T14:59:29.395Z,10.80
2018-03-08T15:02:03.898Z,10.60
2018-03-08T15:04:37.530Z,10.60
2018-03-08T15:07:12.086Z,10.50
2018-03-08T15:09:46.056Z,10.40
2018-03-08T15:12:19.825Z,10.30
2018-03-08T15:14:54.365Z,10.20
2018-03-08T15:17:28.130Z,10.20
2018-03-08T15:20:01.903Z,10.10
2018-03-08T15:22:35.697Z,10.00
2018-03-08T15:25:09.762Z,9.80
2018-03-08T15:27:43.567Z,9.70
2018-03-08T15:30:18.069Z,9.50
2018-03-08T15:32:51.967Z,9.50
2018-03-08T15:35:25.528Z,9.40
2018-03-08T15:37:59.196Z,9.30
2018-03-08T15:40:32.870Z,9.30
2018-03-08T15:43:06.677Z,9.30
2018-03-08T15:45:40.412Z,9.20
2018-03-08T15:48:14.106Z,9.20
2018-03-08T15:50:47.803Z,9.20
2018-03-08T15:53:21.577Z,9.10
2018-03-08T15:55:55.766Z,9.10
2018-03-08T15:58:29.572Z,9.00
2018-03-08T16:01:04.668Z,8.80
2018-03-08T16:03:39.216Z,8.70
2018-03-08T16:06:12.856Z,8.70
2018-03-08T16:08:59.073Z,8.50
2018-03-08T16:11:33.624Z,8.20
2018-03-08T16:14:07.526Z,8.20
2018-03-08T16:16:41.255Z,8.00
2018-03-08T16:19:15.043Z,7.90
2018-03-08T16:21:48.950Z,7.80
2018-03-08T16:24:22.534Z,7.80
2018-03-08T16:26:56.321Z,7.70
2018-03-08T16:29:30.162Z,7.70
2018-03-08T16:32:03.926Z,7.60
2018-03-08T16:34:37.633Z,7.60
2018-03-08T16:37:12.301Z,7.60
2018-03-08T16:39:45.935Z,7.60
2018-03-08T16:42:19.687Z,7.60
2018-03-08T16:44:54.277Z,7.60
2018-03-08T16:47:28.140Z,7.50
2018-03-08T16:50:01.921Z,7.50
2018-03-08T16:52:36.488Z,7.40
2018-03-08T16:55:10.090Z,7.40
2018-03-08T16:57:44.682Z,7.40
2018-03-08T17:00:19.295Z,7.40
2018-03-08T17:02:53.921Z,7.40
2018-03-08T17:05:27.659Z,7.40
2018-03-08T17:08:01.545Z,7.50
2018-03-08T17:10:36.146Z,7.50
2018-03-08T17:13:11.091Z,7.50
2018-03-08T17:15:45.125Z,7.50
2018-03-08T17:18:18.847Z,7.50
2018-03-08T17:20:53.396Z,7.50
2018-03-08T17:23:27.177Z,7.50
2018-03-08T17:26:01.172Z,7.40
2018-03-08T17:28:34.913Z,7.40
2018-03-08T17:31:09.521Z,7.40
2018-03-08T17:33:43.116Z,7.30
2018-03-08T17:36:16.982Z,7.20
2018-03-08T17:38:51.430Z,7.20
2018-03-08T17:41:25.225Z,7.20
2018-03-08T17:43:58.979Z,7.20
2018-03-08T17:46:32.665Z,7.20
2018-03-08T17:49:06.465Z,7.20
2018-03-08T17:51:40.243Z,7.30
2018-03-08T17:54:14.009Z,7.30
2018-03-08T17:56:47.805Z,7.30
2018-03-08T17:59:21.460Z,7.30
2018-03-08T18:01:55.748Z,7.30
2018-03-08T18:04:29.691Z,7.30
2018-03-08T18:07:04.746Z,7.20
2018-03-08T18:09:38.552Z,7.20
2018-03-08T18:12:12.375Z,7.30
2018-03-08T18:14:46.181Z,7.30
2018-03-08T18:17:21.037Z,7.20
2018-03-08T18:19:54.680Z,7.20
2018-03-08T18:22:28.538Z,7.20
2018-03-08T18:25:02.318Z,7.20
2018-03-08T18:27:36.101Z,7.20
2018-03-08T18:30:10.021Z,7.10
2018-03-08T18:32:43.865Z,7.10
2018-03-08T18:35:18.966Z,7.10
2018-03-08T18:37:52.713Z,7.10
2018-03-08T18:40:26.387Z,7.10
2018-03-08T18:43:00.061Z,7.10
2018-03-08T18:45:33.863Z,7.10
2018-03-08T18:48:09.553Z,7.10
2018-03-08T18:50:43.396Z,7.00
2018-03-08T18:53:17.448Z,7.00
2018-03-08T18:55:51.263Z,7.00
2018-03-08T18:58:27.702Z,7.00
2018-03-08T19:01:02.536Z,7.00
2018-03-08T19:03:36.291Z,6.90
2018-03-08T19:06:10.866Z,5.40
2018-03-08T19:08:44.597Z,4.10
2018-03-08T19:11:18.209Z,3.60
2018-03-08T19:13:51.809Z,3.60
2018-03-08T19:16:26.326Z,3.70
2018-03-08T19:19:00.137Z,3.70
2018-03-08T19:21:34.639Z,3.90
2018-03-08T19:24:08.327Z,3.90
2018-03-08T19:26:42.077Z,4.00
2018-03-08T19:29:15.859Z,4.00
2018-03-08T19:31:51.150Z,4.10
2018-03-08T19:34:24.787Z,4.10
2018-03-08T19:36:59.743Z,4.10
2018-03-08T19:39:33.424Z,4.00
2018-03-08T19:42:07.173Z,4.00
2018-03-08T19:44:41.013Z,4.00
2018-03-08T19:47:15.250Z,4.00
2018-03-08T19:49:50.650Z,3.90
2018-03-08T19:52:25.273Z,3.80
2018-03-08T19:55:00.701Z,3.80
2018-03-08T19:57:34.530Z,3.80
2018-03-08T20:00:08.780Z,3.80
2018-03-08T20:02:43.346Z,3.80
2018-03-08T20:05:17.134Z,3.80
2018-03-08T20:07:50.720Z,3.70
2018-03-08T20:10:24.480Z,3.80
2018-03-08T20:12:58.367Z,3.70
2018-03-08T20:15:32.885Z,3.70
2018-03-08T20:18:07.554Z,3.70
2018-03-08T20:20:41.292Z,3.70
2018-03-08T20:23:14.979Z,3.70
2018-03-08T20:25:49.555Z,3.60
2018-03-08T20:28:24.185Z,3.60
2018-03-08T20:30:58.006Z,3.60
2018-03-08T20:33:32.575Z,3.80
2018-03-08T20:36:07.201Z,3.80
2018-03-08T20:38:43.357Z,3.90
2018-03-08T20:41:17.034Z,4.00
2018-03-08T20:43:50.827Z,4.10
2018-03-08T20:46:24.942Z,4.30
2018-03-08T20:48:58.703Z,4.30
2018-03-08T20:51:33.461Z,4.40
2018-03-08T20:54:08.105Z,4.40
2018-03-08T20:56:42.401Z,4.50
2018-03-08T20:59:16.214Z,4.50
2018-03-08T21:01:49.806Z,4.40
2018-03-08T21:04:23.655Z,4.50
2018-03-08T21:06:57.512Z,4.40
2018-03-08T21:09:31.184Z,4.40
2018-03-08T21:12:05.837Z,4.40
2018-03-08T21:14:39.508Z,4.40
2018-03-08T21:17:13.346Z,4.30
2018-03-08T21:19:47.241Z,4.30
2018-03-08T21:22:21.778Z,4.30
2018-03-08T21:24:56.227Z,4.40
2018-03-08T21:27:30.043Z,4.30
2018-03-08T21:30:03.849Z,4.30
2018-03-08T21:32:38.240Z,4.30
2018-03-08T21:35:12.726Z,4.30
2018-03-08T21:37:46.461Z,4.30
2018-03-08T21:40:20.140Z,4.40
2018-03-08T21:42:53.944Z,4.40
2018-03-08T21:45:27.713Z,4.50
2018-03-08T21:48:01.446Z,4.50
2018-03-08T21:50:35.170Z,4.50
2018-03-08T21:53:09.954Z,4.50
2018-03-08T21:55:43.603Z,4.60
2018-03-08T21:58:17.370Z,4.60
2018-03-08T22:00:51.098Z,4.60
2018-03-08T22:03:24.911Z,4.60
2018-03-08T22:05:58.722Z,4.70
2018-03-08T22:08:32.479Z,4.70
2018-03-08T22:11:07.022Z,4.80
2018-03-08T22:13:41.545Z,4.80
2018-03-08T22:16:15.294Z,4.80
2018-03-08T22:18:49.038Z,4.80
2018-03-08T22:21:22.829Z,4.80
2018-03-08T22:23:56.588Z,4.80
2018-03-08T22:26:30.491Z,4.80
2018-03-08T22:29:04.178Z,4.80
2018-03-08T22:31:37.946Z,4.80
2018-03-08T22:34:11.701Z,4.90
2018-03-08T22:36:45.320Z,4.90
2018-03-08T22:39:19.030Z,4.90
2018-03-08T22:41:53.608Z,5.00
2018-03-08T22:44:27.935Z,4.90
2018-03-08T22:47:01.765Z,4.90
2018-03-08T22:49:35.379Z,4.90
2018-03-08T22:52:09.229Z,4.90
2018-03-08T22:54:43.901Z,4.90
2018-03-08T22:57:18.398Z,5.00
2018-03-08T22:59:52.093Z,5.00
2018-03-08T23:02:31.611Z,5.00
2018-03-08T23:05:05.433Z,5.10
2018-03-08T23:07:39.240Z,5.10
2018-03-08T23:10:13.772Z,5.10
2018-03-08T23:12:47.658Z,5.10
2018-03-08T23:15:22.180Z,5.10
2018-03-08T23:17:55.759Z,5.10
2018-03-08T23:20:29.519Z,5.10
2018-03-08T23:23:04.086Z,5.00
2018-03-08T23:25:37.896Z,5.00
2018-03-08T23:28:12.482Z,5.00
2018-03-08T23:30:46.234Z,5.00
2018-03-08T23:33:19.968Z,5.00
2018-03-08T23:35:53.784Z,4.90
2018-03-08T23:38:27.565Z,4.90
2018-03-08T23:43:40.587Z,4.80
2018-03-08T23:46:14.365Z,4.80
2018-03-08T23:48:48.041Z,4.70
2018-03-08T23:51:21.842Z,4.70
2018-03-08T23:53:55.586Z,4.60
2018-03-08T23:56:29.376Z,4.60
2018-03-08T23:59:03.104Z,4.60
